Time;durP1;ratioP1;P1;durP2;ratioP2;P2;SDS_P1;SDS_P2;PMS_P1;PMS_P2;Temp;Humidity;BMP_temperature;BMP_pressure;BME280_temperature;BME280_humidity;BME280_pressure;Samples;Min_cycle;Max_cycle;Signal;HPM_P1;HPM_P2
2022/11/17 00:00:05;;;;;;;16.50;11.20;;;2.60;99.90;;;;;;5093373;28;20039;-81
2022/11/17 00:02:31;;;;;;;15.40;9.43;;;2.60;99.90;;;;;;5092851;28;20024;-81
2022/11/17 00:04:56;;;;;;;15.37;10.73;;;2.60;99.90;;;;;;5092881;28;20055;-80
2022/11/17 00:07:22;;;;;;;14.80;10.03;;;2.60;99.90;;;;;;5092791;28;20055;-80
2022/11/17 00:09:47;;;;;;;16.67;10.63;;;2.60;99.90;;;;;;5093100;28;20115;-81
2022/11/17 00:14:57;;;;;;;16.73;10.33;;;2.60;99.90;;;;;;5072304;28;20039;-81
2022/11/17 00:17:23;;;;;;;19.10;10.23;;;2.60;99.90;;;;;;5082757;28;20418;-81
2022/11/17 00:22:32;;;;;;;15.97;10.60;;;2.50;99.90;;;;;;5092481;28;20027;-81
2022/11/17 00:24:58;;;;;;;15.80;10.10;;;2.50;99.90;;;;;;5092348;28;20099;-81
2022/11/17 00:27:24;;;;;;;17.93;9.97;;;2.50;99.90;;;;;;5091991;28;20428;-81
2022/11/17 00:29:49;;;;;;;15.03;9.90;;;2.50;99.90;;;;;;5092064;28;20096;-81
2022/11/17 00:35:02;;;;;;;14.60;9.07;;;2.60;99.90;;;;;;5092844;28;20039;-81
2022/11/17 00:37:32;;;;;;;13.00;9.47;;;2.50;99.90;;;;;;5091265;28;20051;-81
2022/11/17 00:39:57;;;;;;;14.87;9.83;;;2.50;99.90;;;;;;5092376;28;20028;-81
2022/11/17 00:42:23;;;;;;;15.03;9.17;;;2.50;99.90;;;;;;5092284;28;20498;-81
2022/11/17 00:44:48;;;;;;;13.87;8.77;;;2.40;99.90;;;;;;5092096;28;20032;-81
2022/11/17 00:47:14;;;;;;;14.50;10.07;;;2.40;99.90;;;;;;5092180;28;20149;-81
2022/11/17 00:49:39;;;;;;;25.77;12.47;;;2.50;99.90;;;;;;5092379;28;20032;-81
2022/11/17 00:52:05;;;;;;;19.70;11.47;;;2.50;99.90;;;;;;5091955;28;20625;-81
2022/11/17 00:54:31;;;;;;;17.27;10.77;;;2.50;99.90;;;;;;5092255;28;20093;-81
2022/11/17 00:56:56;;;;;;;15.17;10.10;;;2.50;99.90;;;;;;5092386;28;20103;-81
2022/11/17 00:59:22;;;;;;;16.60;10.37;;;2.50;99.90;;;;;;5092013;28;20106;-80
2022/11/17 01:01:48;;;;;;;14.40;9.87;;;2.50;99.90;;;;;;5092358;28;20127;-80
2022/11/17 01:04:14;;;;;;;14.67;10.17;;;2.60;99.90;;;;;;5092379;28;20042;-81
2022/11/17 01:06:43;;;;;;;13.40;9.83;;;2.60;99.90;;;;;;5091734;28;20043;-80
2022/11/17 01:09:13;;;;;;;21.07;12.20;;;2.60;99.90;;;;;;5092036;28;20702;-80
2022/11/17 01:11:39;;;;;;;19.57;11.60;;;2.60;99.90;;;;;;5091875;28;20429;-80
2022/11/17 01:14:05;;;;;;;19.23;11.80;;;2.60;99.90;;;;;;5091691;28;20066;-80
2022/11/17 01:16:31;;;;;;;15.70;11.73;;;2.60;99.90;;;;;;5091691;28;20028;-80
2022/11/17 01:18:59;;;;;;;18.50;12.13;;;2.70;99.90;;;;;;5091302;28;20691;-80
2022/11/17 01:21:26;;;;;;;18.53;13.07;;;2.70;99.90;;;;;;5091538;28;20419;-80
2022/11/17 01:23:54;;;;;;;17.07;11.53;;;2.70;99.90;;;;;;5091162;28;20076;-80
2022/11/17 01:26:25;;;;;;;17.93;12.47;;;2.70;99.90;;;;;;5090953;28;20032;-80
2022/11/17 01:28:51;;;;;;;17.40;11.63;;;2.80;99.90;;;;;;5091012;28;20079;-80
2022/11/17 01:31:19;;;;;;;17.90;11.67;;;2.80;99.90;;;;;;5073525;28;20032;-80
2022/11/17 01:33:46;;;;;;;15.03;10.93;;;2.80;99.90;;;;;;5091280;28;20028;-80
2022/11/17 01:36:18;;;;;;;15.90;11.07;;;2.90;99.90;;;;;;5090487;28;20097;-80
2022/11/17 01:38:44;;;;;;;16.77;10.57;;;2.90;99.90;;;;;;5091312;28;20499;-80
2022/11/17 01:41:28;;;;;;;15.60;10.37;;;3.00;99.90;;;;;;5091544;28;20419;-80
2022/11/17 01:44:14;;;;;;;16.57;9.80;;;3.00;99.90;;;;;;5091244;28;20168;-80
2022/11/17 01:46:40;;;;;;;12.50;9.50;;;3.00;99.90;;;;;;5091441;28;20043;-80
2022/11/17 01:49:14;;;;;;;15.40;10.13;;;3.00;99.90;;;;;;5094136;28;20056;-80
2022/11/17 01:51:44;;;;;;;13.00;9.47;;;3.00;99.90;;;;;;5095408;28;20056;-80
2022/11/17 01:54:15;;;;;;;15.63;9.90;;;3.00;99.90;;;;;;5092315;28;20024;-80
2022/11/17 01:56:45;;;;;;;14.77;9.87;;;3.00;99.90;;;;;;5095566;28;20103;-80
2022/11/17 01:59:37;;;;;;;14.30;10.60;;;3.00;99.90;;;;;;5095205;28;20031;-80
2022/11/17 02:02:03;;;;;;;15.50;11.93;;;3.00;99.90;;;;;;5095053;28;20035;-80
2022/11/17 02:04:35;;;;;;;16.47;10.47;;;3.00;99.90;;;;;;5095391;28;20028;-80
2022/11/17 02:07:23;;;;;;;15.10;10.13;;;3.00;99.90;;;;;;5076424;28;20387;-80
2022/11/17 02:09:51;;;;;;;14.17;9.80;;;3.00;99.90;;;;;;5094727;28;20028;-80
2022/11/17 02:12:17;;;;;;;14.80;10.07;;;3.00;99.90;;;;;;5094748;28;20038;-80
2022/11/17 02:14:43;;;;;;;14.23;10.90;;;3.00;99.90;;;;;;5094379;28;20077;-80
2022/11/17 02:17:10;;;;;;;14.80;10.47;;;3.10;99.90;;;;;;5094398;28;20024;-80
2022/11/17 02:19:38;;;;;;;16.10;11.37;;;3.10;99.90;;;;;;5094287;28;20024;-80
2022/11/17 02:22:31;;;;;;;14.63;11.37;;;3.10;99.90;;;;;;5094603;28;20059;-80
2022/11/17 02:25:08;;;;;;;16.67;11.83;;;3.20;99.90;;;;;;5094197;28;20400;-80
2022/11/17 02:27:44;;;;;;;16.57;12.03;;;3.30;99.90;;;;;;5094032;28;20078;-80
2022/11/17 02:30:19;;;;;;;21.93;12.47;;;3.30;99.90;;;;;;5094070;28;20384;-80
2022/11/17 02:32:47;;;;;;;18.60;12.20;;;3.40;99.90;;;;;;5094126;28;20415;-80
2022/11/17 02:35:26;;;;;;;17.47;12.23;;;3.40;99.90;;;;;;5093079;28;20067;-80
2022/11/17 02:38:13;;;;;;;16.93;12.00;;;3.50;99.90;;;;;;5093110;28;20724;-80
2022/11/17 02:41:01;;;;;;;16.43;11.90;;;3.50;99.90;;;;;;5094027;28;20115;-80
2022/11/17 02:46:22;;;;;;;17.40;12.67;;;3.50;99.90;;;;;;5074230;28;20387;-81
2022/11/17 02:48:51;;;;;;;18.73;12.10;;;3.50;99.90;;;;;;5074341;28;20119;-82
2022/11/17 02:51:21;;;;;;;19.27;13.20;;;3.50;99.90;;;;;;5074551;28;20024;-82
2022/11/17 02:53:52;;;;;;;18.13;13.13;;;3.50;99.90;;;;;;5075163;28;20377;-82
2022/11/17 02:56:18;;;;;;;18.60;13.20;;;3.50;99.90;;;;;;5094611;28;20586;-82
2022/11/17 02:58:44;;;;;;;17.23;13.07;;;3.50;99.90;;;;;;5094321;28;20059;-82
2022/11/17 03:01:48;;;;;;;20.33;13.00;;;3.50;99.90;;;;;;5093815;28;20154;-82
2022/11/17 03:04:55;;;;;;;15.93;12.03;;;3.50;99.90;;;;;;5016879;28;20176;-82
2022/11/17 03:07:30;;;;;;;16.50;11.70;;;3.50;99.90;;;;;;5011825;28;20075;-82
2022/11/17 03:10:07;;;;;;;19.00;11.25;;;3.50;99.90;;;;;;5082440;28;20545;-82
2022/11/17 03:12:48;;;;;;;15.10;11.20;;;3.50;99.90;;;;;;5094375;28;20024;-82
2022/11/17 03:15:29;;;;;;;20.77;11.97;;;3.50;99.90;;;;;;5094138;28;20024;-82
2022/11/17 03:18:18;;;;;;;19.00;11.53;;;3.50;99.90;;;;;;5094509;28;20035;-82
2022/11/17 03:21:06;;;;;;;16.93;11.23;;;3.50;99.90;;;;;;5094128;28;20032;-82
2022/11/17 03:23:37;;;;;;;13.57;10.13;;;3.50;99.90;;;;;;5094296;28;20027;-82
2022/11/17 03:26:06;;;;;;;17.40;11.50;;;3.40;99.90;;;;;;5094033;28;20028;-82
2022/11/17 03:28:32;;;;;;;14.53;10.43;;;3.40;99.90;;;;;;5093892;28;20028;-82
2022/11/17 03:31:00;;;;;;;18.07;11.03;;;3.30;99.90;;;;;;5094136;28;20028;-82
2022/11/17 03:33:27;;;;;;;13.37;9.80;;;3.30;99.90;;;;;;5094210;28;20030;-82
2022/11/17 03:36:02;;;;;;;15.97;9.93;;;3.30;99.90;;;;;;5093896;28;20056;-82
2022/11/17 03:38:34;;;;;;;15.48;10.85;;;3.30;99.90;;;;;;5093710;28;20022;-82
2022/11/17 03:41:02;;;;;;;12.97;9.87;;;3.30;99.90;;;;;;5093505;28;20043;-82
2022/11/17 03:43:30;;;;;;;13.30;10.50;;;3.20;99.90;;;;;;5093362;28;20028;-82
2022/11/17 03:46:02;;;;;;;19.37;10.80;;;3.20;99.90;;;;;;5093744;28;20103;-82
2022/11/17 03:48:51;;;;;;;16.03;9.60;;;3.20;99.90;;;;;;5093551;28;20105;-82
2022/11/17 03:51:22;;;;;;;22.03;13.17;;;3.20;99.90;;;;;;5093314;28;20060;-82
2022/11/17 03:53:48;;;;;;;15.93;10.83;;;3.20;99.90;;;;;;5075059;28;20020;-82
2022/11/17 03:56:42;;;;;;;13.47;9.10;;;3.20;99.90;;;;;;5093462;28;20020;-82
2022/11/17 03:59:38;;;;;;;15.57;9.70;;;3.20;99.90;;;;;;5093616;28;20442;-82
2022/11/17 04:02:04;;;;;;;17.60;9.95;;;3.20;99.90;;;;;;5092997;28;20035;-82
2022/11/17 04:05:04;;;;;;;15.57;9.03;;;3.20;99.90;;;;;;5093330;28;20039;-82
2022/11/17 04:07:15;;;;;;;14.23;9.45;;;3.20;99.90;;;;;;5092951;28;20031;-82
2022/11/17 04:09:41;;;;;;;17.60;8.90;;;3.20;99.90;;;;;;5093189;28;20019;-82
2022/11/17 04:17:35;;;;;;;14.80;9.13;;;3.20;99.90;;;;;;5092954;28;20035;-82
2022/11/17 04:20:00;;;;;;;15.03;10.17;;;3.20;99.90;;;;;;5092394;28;20456;-80
2022/11/17 04:22:26;;;;;;;18.63;10.97;;;3.10;99.90;;;;;;5092549;28;20032;-80
2022/11/17 04:24:51;;;;;;;16.47;11.33;;;3.10;99.90;;;;;;5092371;28;20052;-82
2022/11/17 04:30:01;;;;;;;15.83;9.73;;;3.20;99.90;;;;;;5092735;28;20030;-82
2022/11/17 04:32:26;;;;;;;15.30;9.40;;;3.20;99.90;;;;;;5092957;28;20028;-82
2022/11/17 04:34:52;;;;;;;14.47;9.63;;;3.20;99.90;;;;;;5092491;28;20035;-82
2022/11/17 04:37:17;;;;;;;13.13;9.50;;;3.20;99.90;;;;;;5092370;28;20024;-82
2022/11/17 04:39:44;;;;;;;16.03;10.77;;;3.20;99.90;;;;;;5092295;28;20103;-82
2022/11/17 04:42:10;;;;;;;15.47;9.20;;;3.30;99.90;;;;;;5092880;28;20457;-84
2022/11/17 04:44:36;;;;;;;15.33;10.77;;;3.30;99.90;;;;;;5092545;28;20024;-84
2022/11/17 04:47:02;;;;;;;12.77;8.80;;;3.40;99.90;;;;;;5092593;28;20111;-83
2022/11/17 04:49:29;;;;;;;13.83;9.20;;;3.40;99.90;;;;;;5092458;28;20016;-85
2022/11/17 04:51:55;;;;;;;12.37;9.00;;;3.40;99.90;;;;;;5092322;28;20028;-84
2022/11/17 04:54:25;;;;;;;14.27;8.20;;;3.50;99.90;;;;;;5092508;28;20449;-84
2022/11/17 04:56:52;;;;;;;13.30;8.97;;;3.50;99.90;;;;;;5092390;28;20020;-84
2022/11/17 04:59:18;;;;;;;11.57;8.57;;;3.60;99.90;;;;;;5092644;28;20028;-84
2022/11/17 05:01:44;;;;;;;12.47;9.20;;;3.60;99.90;;;;;;5092359;28;20028;-84
2022/11/17 05:04:13;;;;;;;11.97;9.30;;;3.60;99.90;;;;;;5092483;28;20469;-84
2022/11/17 05:06:43;;;;;;;13.30;9.17;;;3.60;99.90;;;;;;5091928;28;20035;-84
2022/11/17 05:09:11;;;;;;;12.50;8.87;;;3.60;99.90;;;;;;5092232;28;20043;-84
2022/11/17 05:14:23;;;;;;;15.07;9.63;;;3.70;99.90;;;;;;5092555;28;20085;-84
2022/11/17 05:17:04;;;;;;;14.07;9.20;;;3.70;99.90;;;;;;5092084;28;20035;-85
2022/11/17 05:19:35;;;;;;;13.93;8.77;;;3.70;99.90;;;;;;5092309;28;20024;-82
2022/11/17 05:22:01;;;;;;;38.57;25.80;;;3.70;99.90;;;;;;5092020;28;20035;-82
2022/11/17 05:24:26;;;;;;;33.97;22.03;;;3.70;99.90;;;;;;5095673;28;20028;-81
2022/11/17 05:26:52;;;;;;;25.63;17.63;;;3.70;99.90;;;;;;5088667;28;20051;-77
2022/11/17 05:29:20;;;;;;;18.47;10.93;;;3.80;99.90;;;;;;5093855;28;20055;-79
2022/11/17 05:31:46;;;;;;;14.33;8.90;;;3.80;99.90;;;;;;5073760;28;20040;-79
2022/11/17 05:34:13;;;;;;;13.50;8.80;;;3.80;99.90;;;;;;5074308;28;20032;-79
2022/11/17 05:36:40;;;;;;;11.70;8.47;;;3.80;99.90;;;;;;5090999;28;20048;-79
2022/11/17 05:39:06;;;;;;;15.00;8.83;;;3.80;99.90;;;;;;5094271;28;20063;-80
2022/11/17 05:41:33;;;;;;;12.57;9.13;;;3.80;99.90;;;;;;5093768;28;20066;-79
2022/11/17 05:43:59;;;;;;;26.20;18.60;;;3.90;99.90;;;;;;5094014;28;20464;-80
2022/11/17 05:46:25;;;;;;;14.47;11.00;;;3.90;99.90;;;;;;5085845;28;20064;-80
2022/11/17 05:48:52;;;;;;;13.57;9.80;;;3.90;99.90;;;;;;5093809;28;20551;-79
2022/11/17 05:51:20;;;;;;;16.47;12.23;;;3.90;99.90;;;;;;5094019;28;20024;-80
2022/11/17 05:53:46;;;;;;;14.70;10.50;;;4.00;99.90;;;;;;5094392;28;20016;-79
2022/11/17 05:56:39;;;;;;;14.13;9.70;;;4.00;99.90;;;;;;5094265;28;20408;-79
2022/11/17 05:59:19;;;;;;;17.20;11.93;;;4.00;99.90;;;;;;5091443;28;20040;-79
2022/11/17 06:01:52;;;;;;;15.93;9.13;;;4.00;99.90;;;;;;5090254;28;20037;-79
2022/11/17 06:04:19;;;;;;;15.17;10.17;;;4.00;99.90;;;;;;5093371;28;20020;-79
2022/11/17 06:06:46;;;;;;;14.60;10.70;;;4.00;99.90;;;;;;5093270;28;20043;-79
2022/11/17 06:09:12;;;;;;;19.57;13.03;;;4.10;99.90;;;;;;5093520;28;20080;-79
2022/11/17 06:11:37;;;;;;;21.50;15.90;;;4.10;99.90;;;;;;5075150;28;20501;-79
2022/11/17 06:14:03;;;;;;;16.17;14.10;;;4.10;99.90;;;;;;5092899;28;20016;-79
2022/11/17 06:16:31;;;;;;;17.00;11.50;;;4.20;99.90;;;;;;5093275;28;20154;-79
2022/11/17 06:19:11;;;;;;;16.00;12.20;;;4.20;99.90;;;;;;5093151;28;20475;-80
2022/11/17 06:21:37;;;;;;;22.13;14.53;;;4.30;99.90;;;;;;5092696;28;20465;-81
2022/11/17 06:24:05;;;;;;;21.73;13.23;;;4.30;99.90;;;;;;5093619;28;20027;-81
2022/11/17 06:26:30;;;;;;;19.73;12.47;;;4.30;99.90;;;;;;5092431;28;20047;-81
2022/11/17 06:28:56;;;;;;;13.73;10.80;;;4.30;99.90;;;;;;5092403;28;20468;-81
2022/11/17 06:31:24;;;;;;;18.63;13.30;;;4.40;99.90;;;;;;5075882;28;20595;-84
2022/11/17 06:33:52;;;;;;;12.00;9.37;;;4.40;99.90;;;;;;5095151;28;20020;-84
2022/11/17 06:36:17;;;;;;;14.23;9.20;;;4.40;99.90;;;;;;5094704;28;20024;-84
2022/11/17 06:38:43;;;;;;;13.80;9.33;;;4.50;99.90;;;;;;5095548;28;20031;-84
2022/11/17 06:41:09;;;;;;;12.83;8.50;;;4.50;99.90;;;;;;5095100;28;20042;-84
2022/11/17 06:43:34;;;;;;;11.23;9.10;;;4.60;99.90;;;;;;5095009;28;20089;-84
2022/11/17 06:46:04;;;;;;;17.93;15.17;;;4.60;99.90;;;;;;5094900;28;20103;-84
2022/11/17 06:48:34;;;;;;;14.33;9.23;;;4.60;99.90;;;;;;5094959;28;20406;-84
2022/11/17 06:51:03;;;;;;;10.17;7.93;;;4.60;99.90;;;;;;5095234;28;20106;-84
2022/11/17 06:53:30;;;;;;;15.23;9.10;;;4.70;99.90;;;;;;5095586;28;20073;-84
2022/11/17 06:58:28;;;;;;;14.07;7.87;;;4.70;99.90;;;;;;5095147;28;20017;-82
2022/11/17 07:00:59;;;;;;;16.17;8.60;;;4.80;99.90;;;;;;5094779;28;20059;-81
2022/11/17 07:03:25;;;;;;;10.50;7.37;;;4.80;99.90;;;;;;5093230;28;20032;-81
2022/11/17 07:05:51;;;;;;;13.70;8.73;;;4.80;99.90;;;;;;5093233;28;20392;-81
2022/11/17 07:08:17;;;;;;;13.87;9.83;;;4.90;99.90;;;;;;5093025;28;20472;-81
2022/11/17 07:10:43;;;;;;;9.33;7.40;;;4.90;99.90;;;;;;5074983;28;20101;-81
2022/11/17 07:13:08;;;;;;;12.33;7.53;;;4.90;99.90;;;;;;5087794;28;20149;-81
2022/11/17 07:15:34;;;;;;;11.90;8.37;;;4.90;99.90;;;;;;5076287;28;20043;-81
2022/11/17 07:17:59;;;;;;;12.27;8.37;;;4.90;99.90;;;;;;5092961;28;20055;-81
2022/11/17 07:20:25;;;;;;;13.93;8.83;;;5.00;99.90;;;;;;5092798;28;20024;-81
2022/11/17 07:22:51;;;;;;;14.83;8.73;;;5.00;99.90;;;;;;5092479;28;20024;-81
2022/11/17 07:25:16;;;;;;;14.10;8.47;;;5.00;99.90;;;;;;5092770;28;20024;-81
2022/11/17 07:27:42;;;;;;;14.97;9.33;;;5.00;99.90;;;;;;5091959;28;20138;-81
2022/11/17 07:30:08;;;;;;;14.13;10.00;;;5.00;99.90;;;;;;5074329;28;20032;-81
2022/11/17 07:32:34;;;;;;;13.63;10.00;;;5.00;99.90;;;;;;5092439;28;20025;-81
2022/11/17 07:35:04;;;;;;;13.07;8.47;;;5.00;99.90;;;;;;5092703;28;20025;-81
2022/11/17 07:37:32;;;;;;;11.50;8.40;;;5.00;99.90;;;;;;5092558;28;20021;-81
2022/11/17 07:40:00;;;;;;;14.10;9.47;;;5.10;99.90;;;;;;5092313;28;20421;-81
2022/11/17 07:42:26;;;;;;;11.80;8.80;;;5.10;99.90;;;;;;5091979;28;20468;-81
2022/11/17 07:44:51;;;;;;;12.63;9.43;;;5.20;99.90;;;;;;5092166;28;20035;-81
2022/11/17 07:47:17;;;;;;;19.40;13.67;;;5.20;99.90;;;;;;5091682;28;20052;-81
2022/11/17 07:49:42;;;;;;;15.17;9.63;;;5.20;99.90;;;;;;5092311;28;20031;-81
2022/11/17 07:52:08;;;;;;;14.63;8.67;;;5.30;99.90;;;;;;5092080;28;20111;-81
2022/11/17 07:54:34;;;;;;;13.40;9.70;;;5.30;99.90;;;;;;5092425;28;20375;-81
2022/11/17 07:56:59;;;;;;;14.57;9.97;;;5.40;99.90;;;;;;5074486;28;20028;-81
2022/11/17 07:59:25;;;;;;;12.57;9.13;;;5.40;99.90;;;;;;5092654;28;20115;-81
2022/11/17 08:01:50;;;;;;;14.43;9.87;;;5.40;99.90;;;;;;5092228;28;20028;-81
2022/11/17 08:04:16;;;;;;;12.87;9.10;;;5.50;99.90;;;;;;5091150;28;20024;-81
2022/11/17 08:06:41;;;;;;;13.23;9.83;;;5.50;99.90;;;;;;5092123;28;20020;-82
2022/11/17 08:09:09;;;;;;;15.63;10.00;;;5.50;99.90;;;;;;5087851;28;20035;-81
2022/11/17 08:11:35;;;;;;;15.00;9.30;;;5.50;99.90;;;;;;5091469;28;20051;-81
2022/11/17 08:14:01;;;;;;;14.43;9.80;;;5.60;99.90;;;;;;5092156;28;20044;-81
2022/11/17 08:16:29;;;;;;;14.10;8.50;;;5.60;99.90;;;;;;5067360;28;20078;-81
2022/11/17 08:18:56;;;;;;;11.87;7.60;;;5.70;99.90;;;;;;5071650;28;20433;-82
2022/11/17 08:21:22;;;;;;;10.50;6.23;;;5.80;99.90;;;;;;5071808;28;20024;-81
2022/11/17 08:23:53;;;;;;;9.17;5.40;;;5.80;99.90;;;;;;5072319;28;20036;-82
2022/11/17 08:26:19;;;;;;;7.73;5.43;;;5.90;99.90;;;;;;5071931;28;20027;-81
2022/11/17 08:28:46;;;;;;;7.90;4.87;;;6.00;99.90;;;;;;5088538;28;20392;-82
2022/11/17 08:31:11;;;;;;;9.20;4.77;;;6.00;99.90;;;;;;5073393;28;20040;-78
2022/11/17 08:33:37;;;;;;;6.00;3.87;;;6.10;99.90;;;;;;5090491;28;20020;-79
2022/11/17 08:36:04;;;;;;;10.60;4.97;;;6.10;99.90;;;;;;5090067;28;20020;-79
2022/11/17 08:38:30;;;;;;;4.50;3.43;;;6.20;99.90;;;;;;5085424;28;20556;-81
2022/11/17 08:40:57;;;;;;;5.53;3.40;;;6.40;99.90;;;;;;5089147;28;20107;-81
2022/11/17 08:43:23;;;;;;;4.40;3.43;;;6.50;99.90;;;;;;5090666;28;20043;-81
2022/11/17 08:45:49;;;;;;;6.80;3.10;;;6.60;99.90;;;;;;5089294;28;20028;-81
2022/11/17 08:48:14;;;;;;;7.30;3.07;;;6.70;99.90;;;;;;5090203;28;20054;-81
2022/11/17 08:50:40;;;;;;;7.30;3.00;;;6.80;99.90;;;;;;5089487;28;20051;-81
2022/11/17 08:53:09;;;;;;;6.77;3.23;;;6.90;99.90;;;;;;5087546;28;20036;-81
2022/11/17 08:55:38;;;;;;;8.37;3.50;;;7.00;99.90;;;;;;5088160;28;20063;-81
2022/11/17 08:58:03;;;;;;;6.43;2.90;;;7.00;99.90;;;;;;5089175;28;20032;-81
2022/11/17 09:00:29;;;;;;;6.97;3.33;;;7.10;99.90;;;;;;5089806;28;20089;-81
2022/11/17 09:02:54;;;;;;;7.37;3.70;;;7.20;99.90;;;;;;5089916;28;20024;-82
2022/11/17 09:05:20;;;;;;;11.43;3.17;;;7.20;99.90;;;;;;5091295;28;20103;-81
2022/11/17 09:07:45;;;;;;;5.70;2.77;;;7.40;99.90;;;;;;5091005;28;20060;-81
2022/11/17 09:10:11;;;;;;;5.13;2.83;;;7.50;99.90;;;;;;5090979;28;20027;-81
2022/11/17 09:12:37;;;;;;;7.47;2.90;;;7.70;99.90;;;;;;5090824;28;20194;-81
2022/11/17 09:15:04;;;;;;;5.17;3.03;;;7.80;99.90;;;;;;5090516;28;20097;-81
2022/11/17 09:17:30;;;;;;;9.10;3.00;;;7.90;99.90;;;;;;5090701;28;20075;-82
2022/11/17 09:19:55;;;;;;;6.30;3.00;;;8.00;99.90;;;;;;5090923;28;20020;-82
2022/11/17 09:22:21;;;;;;;7.73;3.10;;;8.00;99.90;;;;;;5090528;28;20093;-81
2022/11/17 09:24:47;;;;;;;6.13;2.70;;;8.10;99.90;;;;;;5090141;28;20440;-81
2022/11/17 09:27:12;;;;;;;4.50;2.40;;;8.10;99.90;;;;;;5090473;28;20031;-82
2022/11/17 09:29:38;;;;;;;6.70;3.03;;;8.10;99.90;;;;;;5090553;28;20032;-82
2022/11/17 09:32:04;;;;;;;5.80;3.03;;;8.20;99.90;;;;;;5089623;28;20032;-81
2022/11/17 09:34:30;;;;;;;4.60;2.90;;;8.20;99.90;;;;;;5090092;28;20553;-81
2022/11/17 09:36:55;;;;;;;6.27;3.00;;;8.30;99.90;;;;;;5090712;28;20031;-81
2022/11/17 09:39:21;;;;;;;5.93;3.07;;;8.30;99.90;;;;;;5091582;28;20063;-81
2022/11/17 09:41:51;;;;;;;4.93;2.83;;;8.30;99.90;;;;;;5091213;28;20024;-82
2022/11/17 09:44:27;;;;;;;5.87;2.53;;;8.40;99.90;;;;;;5088036;28;20056;-81
2022/11/17 09:47:17;;;;;;;5.20;2.33;;;8.50;99.90;;;;;;5089955;28;20480;-81
2022/11/17 09:49:51;;;;;;;5.93;2.60;;;8.70;99.90;;;;;;5090929;28;20040;-82
2022/11/17 09:52:28;;;;;;;4.90;2.47;;;8.80;99.90;;;;;;5091053;28;20061;-81
2022/11/17 09:54:57;;;;;;;6.23;3.23;;;9.00;99.90;;;;;;5091677;28;20036;-81
2022/11/17 09:57:44;;;;;;;4.87;2.13;;;9.10;99.90;;;;;;5091140;28;20020;-81
2022/11/17 10:00:15;;;;;;;4.53;2.50;;;9.30;99.90;;;;;;5090620;28;20036;-82
2022/11/17 10:02:42;;;;;;;4.93;2.70;;;9.40;99.90;;;;;;5089244;28;20024;-82
2022/11/17 10:05:30;;;;;;;5.30;3.00;;;9.70;99.90;;;;;;5089886;28;20078;-82
2022/11/17 10:08:02;;;;;;;4.53;2.40;;;9.80;99.90;;;;;;5090485;28;20508;-82
2022/11/17 10:10:49;;;;;;;4.00;2.77;;;10.00;99.90;;;;;;5093749;28;20024;-82
2022/11/17 10:13:31;;;;;;;5.67;2.47;;;10.20;99.90;;;;;;5094471;28;20046;-82
2022/11/17 10:16:06;;;;;;;3.93;1.97;;;10.30;99.90;;;;;;5094043;28;20158;-82
2022/11/17 10:18:36;;;;;;;;;;;10.40;99.90;;;;;;5094824;28;20043;-83
2022/11/17 10:21:02;;;;;;;3.67;1.80;;;10.50;99.90;;;;;;5093854;28;19915;-83
2022/11/17 10:23:43;;;;;;;4.85;1.50;;;10.60;99.90;;;;;;5083406;28;20042;-83
2022/11/17 10:26:11;;;;;;;2.10;1.40;;;10.60;99.90;;;;;;5087639;28;20055;-83
2022/11/17 10:28:37;;;;;;;3.72;1.65;;;10.80;99.90;;;;;;5085381;28;20028;-83
2022/11/17 10:31:17;;;;;;;2.50;1.33;;;10.80;99.90;;;;;;5082795;28;20032;-83
2022/11/17 10:33:48;;;;;;;2.85;1.40;;;10.90;99.90;;;;;;5082621;28;20020;-83
2022/11/17 10:36:23;;;;;;;3.78;1.90;;;11.00;99.90;;;;;;5084364;28;20127;-83
2022/11/17 10:38:53;;;;;;;3.53;1.98;;;11.00;99.90;;;;;;5086227;28;20023;-83
2022/11/17 10:41:25;;;;;;;2.45;1.40;;;11.00;99.90;;;;;;5083969;28;20123;-84
2022/11/17 10:44:11;;;;;;;3.90;1.45;;;11.10;99.90;;;;;;5086017;28;20501;-83
2022/11/17 10:47:02;;;;;;;2.03;1.35;;;11.10;99.90;;;;;;5072121;28;20131;-83
2022/11/17 10:49:39;;;;;;;2.08;1.30;;;11.20;99.90;;;;;;5083149;28;20428;-83
2022/11/17 10:52:08;;;;;;;2.95;1.42;;;11.40;99.90;;;;;;5093561;28;20111;-83
2022/11/17 10:54:33;;;;;;;2.80;1.25;;;11.50;99.90;;;;;;5093066;28;20050;-83
2022/11/17 10:57:04;;;;;;;2.70;1.20;;;11.50;99.90;;;;;;5093687;28;20461;-83
2022/11/17 10:59:31;;;;;;;3.58;1.30;;;11.50;99.90;;;;;;5093474;28;20020;-83
2022/11/17 11:01:57;;;;;;;1.83;0.90;;;11.70;99.90;;;;;;5092966;28;20078;-83
2022/11/17 11:04:34;;;;;;;3.25;1.17;;;11.70;99.90;;;;;;5093126;28;20485;-83
2022/11/17 11:07:07;;;;;;;1.90;1.05;;;11.80;99.90;;;;;;5093440;28;20073;-83
2022/11/17 11:09:38;;;;;;;4.80;1.20;;;11.80;99.90;;;;;;5093194;28;20023;-84
2022/11/17 11:12:10;;;;;;;1.50;1.10;;;11.90;99.90;;;;;;5092067;28;20035;-84
2022/11/17 11:14:42;;;;;;;3.35;1.27;;;12.00;99.90;;;;;;5093652;28;20034;-82
2022/11/17 11:17:16;;;;;;;3.38;1.17;;;12.00;99.90;;;;;;5093732;28;20021;-83
2022/11/17 11:19:46;;;;;;;2.45;1.10;;;12.10;99.90;;;;;;5093567;28;20115;-83
2022/11/17 11:22:44;;;;;;;2.15;1.25;;;12.20;99.90;;;;;;5092412;28;20246;-82
2022/11/17 11:25:23;;;;;;;2.08;1.27;;;12.20;99.90;;;;;;5073011;28;20028;-83
2022/11/17 11:28:04;;;;;;;2.75;1.30;;;12.30;99.90;;;;;;5088783;28;20020;-83
2022/11/17 11:30:37;;;;;;;2.03;1.00;;;12.40;99.90;;;;;;5092177;28;20020;-83
2022/11/17 11:33:23;;;;;;;1.70;1.10;;;12.50;99.90;;;;;;5091014;28;20425;-82
2022/11/17 11:35:55;;;;;;;1.52;1.17;;;12.40;99.90;;;;;;5090773;28;20089;-81
2022/11/17 11:38:48;;;;;;;2.58;1.10;;;12.30;99.90;;;;;;5091522;28;20047;-81
2022/11/17 11:41:36;;;;;;;2.95;1.35;;;12.30;99.90;;;;;;5091851;28;20042;-82
2022/11/17 11:44:01;;;;;;;2.28;1.10;;;12.30;99.90;;;;;;5086823;28;20484;-82
2022/11/17 11:46:47;;;;;;;1.63;0.90;;;12.30;99.90;;;;;;5075719;28;20103;-82
2022/11/17 11:49:18;;;;;;;3.05;1.35;;;12.30;99.90;;;;;;5091068;28;20056;-82
2022/11/17 11:51:47;;;;;;;2.28;1.10;;;12.40;99.90;;;;;;5090996;28;20038;-81
2022/11/17 11:54:18;;;;;;;3.10;1.35;;;12.40;99.90;;;;;;5091261;28;20032;-81
2022/11/17 11:56:47;;;;;;;4.25;1.23;;;12.40;99.90;;;;;;5091927;28;20043;-81
2022/11/17 11:59:29;;;;;;;5.70;1.52;;;12.40;99.90;;;;;;5087094;28;20028;-81
2022/11/17 12:02:09;;;;;;;3.95;1.40;;;12.50;99.90;;;;;;5077852;28;20177;-82
2022/11/17 12:05:02;;;;;;;3.83;1.35;;;12.50;99.90;;;;;;5091528;28;20485;-81
2022/11/17 12:07:49;;;;;;;1.77;1.10;;;12.60;99.90;;;;;;5091405;28;20040;-82
2022/11/17 12:10:37;;;;;;;3.03;1.40;;;12.70;99.90;;;;;;5090710;28;20020;-81
2022/11/17 12:13:04;;;;;;;4.13;1.20;;;12.60;99.90;;;;;;5091642;28;20098;-81
2022/11/17 12:15:32;;;;;;;4.18;1.38;;;12.50;99.90;;;;;;5091178;28;20104;-81
2022/11/17 12:18:24;;;;;;;4.85;2.20;;;12.50;99.90;;;;;;5090262;28;20020;-81
2022/11/17 12:21:02;;;;;;;2.95;1.20;;;12.40;99.90;;;;;;5085168;28;20044;-81
2022/11/17 12:23:33;;;;;;;5.15;1.45;;;12.40;99.90;;;;;;5090723;28;20020;-81
2022/11/17 12:26:00;;;;;;;2.03;0.90;;;12.50;99.90;;;;;;5088205;28;20100;-81
2022/11/17 12:28:34;;;;;;;3.22;1.30;;;12.50;99.90;;;;;;5090290;28;20026;-79
2022/11/17 12:31:09;;;;;;;4.18;1.30;;;12.50;99.90;;;;;;5088329;28;20055;-81
2022/11/17 12:33:53;;;;;;;3.20;1.40;;;12.50;99.90;;;;;;5089239;28;20449;-81
2022/11/17 12:36:30;;;;;;;2.95;1.25;;;12.60;99.90;;;;;;5085632;28;20484;-81
2022/11/17 12:39:00;;;;;;;2.70;1.20;;;12.60;99.90;;;;;;5087777;28;20024;-81
2022/11/17 12:41:48;;;;;;;4.53;1.52;;;12.60;99.90;;;;;;5090264;28;20024;-81
2022/11/17 12:44:48;;;;;;;3.05;1.00;;;12.60;99.90;;;;;;5084802;28;20032;-82
2022/11/17 12:47:21;;;;;;;3.50;1.20;;;12.60;99.90;;;;;;5090743;28;20020;-82
2022/11/17 12:50:21;;;;;;;4.70;1.30;;;12.70;99.90;;;;;;5084381;28;20044;-82
2022/11/17 12:53:13;;;;;;;3.78;1.50;;;12.80;99.90;;;;;;5076833;28;20043;-81
2022/11/17 12:56:01;;;;;;;4.82;1.00;;;12.70;99.90;;;;;;5088382;28;20162;-81
2022/11/17 12:58:47;;;;;;;3.67;1.70;;;12.80;99.90;;;;;;5090980;28;20495;-82
2022/11/17 13:01:50;;;;;;;5.22;1.10;;;12.90;99.90;;;;;;5090426;28;20032;-82
2022/11/17 13:04:35;;;;;;;3.35;1.30;;;12.90;99.90;;;;;;5090360;28;20024;-82
2022/11/17 13:07:06;;;;;;;2.90;1.17;;;12.90;99.90;;;;;;5090028;28;20414;-82
2022/11/17 13:09:35;;;;;;;2.85;1.33;;;12.90;99.90;;;;;;5089935;28;20262;-82
2022/11/17 13:12:05;;;;;;;6.38;1.50;;;12.90;99.90;;;;;;5090222;28;20368;-81
2022/11/17 13:14:33;;;;;;;4.00;1.48;;;12.70;99.90;;;;;;5090616;28;20020;-83
2022/11/17 13:16:59;;;;;;;5.60;1.85;;;12.60;99.90;;;;;;5090540;28;20028;-76
2022/11/17 13:19:40;;;;;;;7.80;1.50;;;12.50;99.90;;;;;;5078567;28;20020;-81
2022/11/17 13:22:17;;;;;;;4.60;1.50;;;12.40;99.90;;;;;;5076196;28;20023;-81
2022/11/17 13:24:47;;;;;;;5.90;1.40;;;12.30;99.90;;;;;;5089466;28;20055;-83
2022/11/17 13:27:23;;;;;;;4.85;1.65;;;12.20;99.90;;;;;;5084653;28;20081;-85
2022/11/17 13:29:50;;;;;;;4.88;1.48;;;12.20;99.90;;;;;;5091353;28;20051;-83